Terminal Aerodrome Forecast
Issued by NWS

Home | Current Version | Previous Version | Text Only | Print | Product List | Glossary On
Versions: 1 2 3 4 5 6 7 8 9 10 11 12 13 14 15 16 17 18 19 20 21 22 23
000
FTUS45 KRIW 282300
TAFPNA
TAF
KPNA 282340Z 2900/2924 VRB06KT P6SM SCT200 WS018/25040KT
     FM291000 26007KT P6SM VCSH SCT030 BKN050 WS015/25035KT
     FM291700 23015KT P6SM SCT050 WS018/26035KT
     FM292000 23020G35KT P6SM SCT040 SCT150
      AMD LTD TO CLD VIS AND WIND=

USA.gov is the U.S. government's official web portal to all federal, state and local government web resources and services.